createdAt,value
2022-09-25T00:00:57.996Z,20.60
2022-09-25T00:03:27.432Z,21.10
2022-09-25T00:06:07.998Z,19.17
2022-09-25T00:08:36.364Z,20.87
2022-09-25T00:11:27.464Z,20.30
2022-09-25T00:13:55.604Z,20.60
2022-09-25T00:16:24.998Z,21.10
2022-09-25T00:19:11.085Z,21.53
2022-09-25T00:21:39.259Z,21.60
2022-09-25T00:24:09.605Z,22.30
2022-09-25T00:26:39.817Z,21.97
2022-09-25T00:29:08.501Z,21.60
2022-09-25T00:31:35.778Z,22.10
2022-09-25T00:34:04.930Z,19.90
2022-09-25T00:36:32.855Z,21.60
2022-09-25T00:39:00.362Z,18.77
2022-09-25T00:41:30.075Z,20.20
2022-09-25T00:43:58.710Z,15.87
2022-09-25T00:46:33.628Z,17.90
2022-09-25T00:49:10.711Z,18.37
2022-09-25T00:51:41.523Z,17.43
2022-09-25T00:54:26.076Z,17.30
2022-09-25T00:56:53.937Z,15.13
2022-09-25T00:59:25.164Z,18.00
2022-09-25T01:01:52.637Z,16.77
2022-09-25T01:04:22.579Z,15.67
2022-09-25T01:06:50.843Z,16.60
2022-09-25T01:09:18.454Z,16.97
2022-09-25T01:11:46.201Z,18.37
2022-09-25T01:14:17.195Z,16.50
2022-09-25T01:16:59.339Z,14.50
2022-09-25T01:19:44.818Z,15.57
2022-09-25T01:22:53.317Z,16.60
2022-09-25T01:25:57.914Z,15.60
2022-09-25T01:28:49.053Z,14.60
2022-09-25T01:31:35.426Z,15.53
2022-09-25T01:34:29.481Z,15.77
2022-09-25T01:37:06.011Z,16.10
2022-09-25T01:39:38.763Z,16.33
2022-09-25T01:42:11.775Z,17.03
2022-09-25T01:44:45.780Z,18.23
2022-09-25T01:47:18.669Z,15.70
2022-09-25T01:49:50.679Z,16.97
2022-09-25T01:52:22.783Z,19.00
2022-09-25T01:54:54.064Z,15.70
2022-09-25T01:57:35.506Z,17.90
2022-09-25T02:00:08.477Z,15.67
2022-09-25T02:02:58.511Z,14.57
2022-09-25T02:05:38.182Z,14.90
2022-09-25T02:08:09.520Z,14.80
2022-09-25T02:10:55.956Z,17.77
2022-09-25T02:13:25.832Z,16.17
2022-09-25T02:16:00.109Z,18.50
2022-09-25T02:18:47.828Z,15.63
2022-09-25T02:21:25.804Z,16.60
2022-09-25T02:23:54.108Z,16.33
2022-09-25T02:26:32.293Z,16.90
2022-09-25T02:28:59.999Z,17.07
2022-09-25T02:31:40.839Z,18.10
2022-09-25T02:34:14.541Z,17.37
2022-09-25T02:36:43.799Z,16.00
2022-09-25T02:39:12.342Z,18.00
2022-09-25T02:41:57.730Z,17.10
2022-09-25T02:44:34.719Z,15.30
2022-09-25T02:47:14.215Z,17.60
2022-09-25T02:49:55.988Z,18.40
2022-09-25T02:52:45.304Z,18.20
2022-09-25T02:55:18.035Z,19.10
2022-09-25T02:57:56.528Z,18.13
2022-09-25T03:00:23.968Z,19.50
2022-09-25T03:02:56.960Z,19.93
2022-09-25T03:05:25.477Z,17.07
2022-09-25T03:08:12.418Z,17.20
2022-09-25T03:10:40.133Z,17.37
2022-09-25T03:13:21.492Z,20.87
2022-09-25T03:15:55.958Z,20.03
2022-09-25T03:18:23.486Z,19.53
2022-09-25T03:20:50.744Z,17.80
2022-09-25T03:23:18.133Z,18.50
2022-09-25T03:25:49.853Z,20.20
2022-09-25T03:28:18.613Z,21.27
2022-09-25T03:31:02.602Z,19.43
2022-09-25T03:33:35.645Z,18.10
2022-09-25T03:36:19.052Z,19.10
2022-09-25T03:38:49.165Z,20.97
2022-09-25T03:41:20.074Z,24.00
2022-09-25T03:43:51.801Z,22.57
2022-09-25T03:46:22.033Z,22.73
2022-09-25T03:48:49.564Z,19.30
2022-09-25T03:51:16.850Z,25.73
2022-09-25T03:53:44.132Z,21.97
2022-09-25T03:56:13.695Z,21.83
2022-09-25T03:58:41.164Z,21.17
2022-09-25T04:01:11.025Z,20.90
2022-09-25T04:03:39.325Z,19.80
2022-09-25T04:06:08.364Z,19.43
2022-09-25T04:08:36.430Z,20.87
2022-09-25T04:11:04.240Z,19.00
2022-09-25T04:13:34.126Z,19.67
2022-09-25T04:16:03.569Z,18.10
2022-09-25T04:18:33.797Z,17.07
2022-09-25T04:21:03.342Z,21.30
2022-09-25T04:23:30.924Z,21.43
2022-09-25T04:25:58.274Z,20.77
2022-09-25T04:28:25.822Z,20.63
2022-09-25T04:30:53.426Z,21.97
2022-09-25T04:33:39.423Z,22.87
2022-09-25T04:36:07.165Z,19.00
2022-09-25T04:38:34.590Z,20.23
2022-09-25T04:41:02.264Z,19.23
2022-09-25T04:43:33.037Z,18.70
2022-09-25T04:46:04.358Z,21.60
2022-09-25T04:48:32.225Z,20.37
2022-09-25T04:50:59.718Z,18.47
2022-09-25T04:53:28.265Z,19.43
2022-09-25T04:56:00.400Z,19.23
2022-09-25T04:58:27.986Z,20.93
2022-09-25T05:00:55.366Z,18.47
2022-09-25T05:03:22.845Z,19.97
2022-09-25T05:05:50.377Z,22.00
2022-09-25T05:08:18.093Z,20.80
2022-09-25T05:10:45.474Z,21.97
2022-09-25T05:13:12.809Z,20.07
2022-09-25T05:15:40.092Z,20.47
2022-09-25T05:18:13.275Z,19.90
2022-09-25T05:20:40.580Z,21.80
2022-09-25T05:23:08.125Z,22.27
2022-09-25T05:25:35.448Z,20.70
2022-09-25T05:28:03.210Z,21.53
2022-09-25T05:30:33.927Z,20.67
2022-09-25T05:33:01.496Z,20.00
2022-09-25T05:35:31.375Z,19.63
2022-09-25T05:37:59.144Z,19.70
2022-09-25T05:40:27.100Z,19.47
2022-09-25T05:42:55.335Z,18.87
2022-09-25T05:45:23.811Z,20.60
2022-09-25T05:48:04.123Z,18.73
2022-09-25T05:50:32.508Z,19.00
2022-09-25T05:53:01.603Z,21.50
2022-09-25T05:55:29.228Z,21.70
2022-09-25T05:58:01.722Z,19.30
2022-09-25T06:00:29.242Z,23.70
2022-09-25T06:02:56.550Z,19.70
2022-09-25T06:05:23.998Z,21.10
2022-09-25T06:07:55.178Z,20.23
2022-09-25T06:10:22.591Z,18.13
2022-09-25T06:12:50.002Z,19.97
2022-09-25T06:15:17.322Z,18.30
2022-09-25T06:17:44.633Z,20.70
2022-09-25T06:20:15.825Z,21.10
2022-09-25T06:22:47.304Z,19.77
2022-09-25T06:25:15.769Z,21.03
2022-09-25T06:27:43.077Z,21.40
2022-09-25T06:30:10.722Z,22.00
2022-09-25T06:32:38.267Z,22.53
2022-09-25T06:35:06.491Z,21.33
2022-09-25T06:37:33.912Z,22.80
2022-09-25T06:40:01.342Z,21.23
2022-09-25T06:42:28.688Z,23.00
2022-09-25T06:44:55.936Z,20.37
2022-09-25T06:47:26.783Z,21.43
2022-09-25T06:49:54.271Z,21.17
2022-09-25T06:52:21.597Z,21.67
2022-09-25T06:54:48.885Z,22.80
2022-09-25T06:57:16.217Z,21.50
2022-09-25T06:59:43.478Z,20.90
2022-09-25T07:02:29.712Z,21.30
2022-09-25T07:04:57.035Z,20.47
2022-09-25T07:07:25.126Z,19.20
2022-09-25T07:09:52.413Z,20.10
2022-09-25T07:12:19.785Z,19.00
2022-09-25T07:14:47.033Z,17.87
2022-09-25T07:17:14.773Z,18.33
2022-09-25T07:19:42.174Z,17.97
2022-09-25T07:22:10.428Z,17.53
2022-09-25T07:24:38.007Z,17.23
2022-09-25T07:27:05.801Z,17.30
2022-09-25T07:29:35.472Z,16.50
2022-09-25T07:32:04.700Z,16.43
2022-09-25T07:34:34.329Z,16.50
2022-09-25T07:37:01.995Z,14.07
2022-09-25T07:39:29.485Z,14.50
2022-09-25T07:41:56.750Z,14.90
2022-09-25T07:44:28.930Z,16.43
2022-09-25T07:46:56.685Z,15.60
2022-09-25T07:49:23.965Z,17.17
2022-09-25T07:51:51.290Z,15.67
2022-09-25T07:54:18.560Z,15.37
2022-09-25T07:56:45.825Z,15.40
2022-09-25T07:59:13.057Z,14.70
2022-09-25T08:01:44.180Z,14.10
2022-09-25T08:04:13.593Z,15.77
2022-09-25T08:06:41.009Z,15.77
2022-09-25T08:09:10.682Z,15.93
2022-09-25T08:11:38.371Z,13.67
2022-09-25T08:14:05.681Z,16.00
2022-09-25T08:16:33.049Z,13.60
2022-09-25T08:19:00.361Z,12.20
2022-09-25T08:21:27.739Z,12.50
2022-09-25T08:23:56.487Z,12.23
2022-09-25T08:26:24.050Z,14.20
2022-09-25T08:28:52.015Z,10.93
2022-09-25T08:31:19.733Z,12.27
2022-09-25T08:33:49.398Z,13.47
2022-09-25T08:36:17.724Z,12.77
2022-09-25T08:38:45.667Z,10.67
2022-09-25T08:41:46.008Z,12.90
2022-09-25T08:44:30.358Z,11.40
2022-09-25T08:50:14.210Z,11.27
2022-09-25T08:52:43.892Z,10.33
2022-09-25T08:55:47.024Z,11.03
2022-09-25T08:58:29.759Z,9.03
2022-09-25T09:01:01.138Z,11.13
2022-09-25T09:03:31.658Z,9.80
2022-09-25T09:06:12.605Z,11.80
2022-09-25T09:08:40.698Z,11.00
2022-09-25T09:11:17.985Z,9.83
2022-09-25T09:14:04.969Z,9.83
2022-09-25T09:16:54.633Z,8.70
2022-09-25T09:19:22.017Z,10.20
2022-09-25T09:22:04.173Z,11.07
2022-09-25T09:24:55.279Z,9.90
2022-09-25T09:27:56.530Z,11.67
2022-09-25T09:30:27.207Z,11.00
2022-09-25T09:33:16.324Z,10.10
2022-09-25T09:36:06.475Z,10.23
2022-09-25T09:38:42.906Z,10.40
2022-09-25T09:41:25.944Z,9.77
2022-09-25T09:44:24.469Z,10.50
2022-09-25T09:46:58.858Z,11.60
2022-09-25T09:49:36.006Z,12.67
2022-09-25T09:52:22.383Z,10.67
2022-09-25T09:55:04.376Z,12.00
2022-09-25T09:57:36.393Z,13.13
2022-09-25T10:00:07.217Z,12.10
2022-09-25T10:02:59.647Z,11.80
2022-09-25T10:05:37.862Z,10.57
2022-09-25T10:08:05.298Z,8.83
2022-09-25T10:10:40.626Z,9.63
2022-09-25T10:13:34.415Z,11.03
2022-09-25T10:16:17.861Z,9.87
2022-09-25T10:19:01.031Z,9.93
2022-09-25T10:21:47.514Z,8.90
2022-09-25T10:24:55.269Z,8.53
2022-09-25T10:27:27.734Z,9.50
2022-09-25T10:30:10.480Z,8.33
2022-09-25T10:33:02.041Z,9.20
2022-09-25T10:35:38.380Z,11.50
2022-09-25T10:38:16.537Z,9.83
2022-09-25T10:40:47.592Z,11.23
2022-09-25T10:43:24.156Z,9.70
2022-09-25T10:46:09.666Z,10.17
2022-09-25T10:48:56.990Z,9.30
2022-09-25T10:51:24.767Z,9.67
2022-09-25T10:53:54.719Z,10.97
2022-09-25T10:56:38.760Z,9.90
2022-09-25T10:59:21.236Z,10.40
2022-09-25T11:01:50.845Z,9.93
2022-09-25T11:04:28.288Z,11.30
2022-09-25T11:07:04.854Z,10.63
2022-09-25T11:09:33.599Z,13.37
2022-09-25T11:12:15.491Z,10.67
2022-09-25T11:15:05.702Z,10.57
2022-09-25T11:17:33.047Z,10.40
2022-09-25T11:20:31.595Z,9.80
2022-09-25T11:23:22.341Z,10.53
2022-09-25T11:26:16.510Z,9.83
2022-09-25T11:28:57.893Z,8.80
2022-09-25T11:31:30.549Z,8.97
2022-09-25T11:34:24.345Z,10.43
2022-09-25T11:37:02.750Z,10.00
2022-09-25T11:40:05.597Z,10.07
2022-09-25T11:42:49.273Z,8.90
2022-09-25T11:45:36.374Z,9.13
2022-09-25T11:48:13.355Z,8.50
2022-09-25T11:50:49.118Z,8.07
2022-09-25T11:53:26.616Z,8.97
2022-09-25T11:56:10.852Z,9.83
2022-09-25T11:58:53.235Z,10.10
2022-09-25T12:01:27.671Z,9.40
2022-09-25T12:04:32.418Z,8.90
2022-09-25T12:07:10.135Z,7.97
2022-09-25T12:09:46.168Z,7.27
2022-09-25T12:12:24.122Z,8.40
2022-09-25T12:15:09.089Z,7.77
2022-09-25T12:17:51.138Z,8.10
2022-09-25T12:20:31.029Z,7.60
2022-09-25T12:23:23.077Z,7.10
2022-09-25T12:26:36.226Z,7.90
2022-09-25T12:29:10.527Z,6.83
2022-09-25T12:32:28.809Z,6.20
2022-09-25T12:35:15.501Z,5.67
2022-09-25T12:37:57.166Z,5.40
2022-09-25T12:40:31.514Z,5.97
2022-09-25T12:43:07.861Z,4.93
2022-09-25T12:45:56.651Z,4.77
2022-09-25T12:48:29.798Z,4.20
2022-09-25T12:51:22.125Z,4.27
2022-09-25T12:54:23.674Z,4.40
2022-09-25T12:57:01.001Z,5.37
2022-09-25T12:59:36.091Z,3.97
2022-09-25T13:02:31.418Z,4.70
2022-09-25T13:05:07.497Z,3.73
2022-09-25T13:07:49.780Z,4.87
2022-09-25T13:10:27.421Z,4.40
2022-09-25T13:12:57.273Z,4.10
2022-09-25T13:15:33.616Z,5.07
2022-09-25T13:18:01.160Z,4.60
2022-09-25T13:20:36.214Z,6.03
2022-09-25T13:23:09.567Z,4.83
2022-09-25T13:25:46.361Z,4.97
2022-09-25T13:28:26.896Z,6.13
2022-09-25T13:31:08.878Z,5.50
2022-09-25T13:33:47.291Z,5.60
2022-09-25T13:36:25.133Z,4.20
2022-09-25T13:39:21.564Z,4.77
2022-09-25T13:42:03.490Z,4.20
2022-09-25T13:44:43.089Z,5.50
2022-09-25T13:47:24.886Z,4.60
2022-09-25T13:50:07.659Z,4.87
2022-09-25T13:52:40.671Z,4.80
2022-09-25T13:55:13.281Z,4.27
2022-09-25T13:57:58.488Z,5.33
2022-09-25T14:00:27.156Z,3.80
2022-09-25T14:03:01.469Z,4.77
2022-09-25T14:05:35.318Z,3.90
2022-09-25T14:08:07.991Z,3.80
2022-09-25T14:10:36.020Z,4.93
2022-09-25T14:13:07.160Z,3.93
2022-09-25T14:15:40.115Z,3.07
2022-09-25T14:18:16.859Z,3.33
2022-09-25T14:20:47.702Z,3.13
2022-09-25T14:23:24.157Z,3.47
2022-09-25T14:25:59.273Z,3.53
2022-09-25T14:28:30.347Z,3.47
2022-09-25T14:31:14.399Z,3.27
2022-09-25T14:34:02.043Z,3.30
2022-09-25T14:37:00.417Z,3.50
2022-09-25T14:39:36.586Z,3.17
2022-09-25T14:42:25.469Z,4.40
2022-09-25T14:45:14.224Z,6.97
2022-09-25T14:47:44.592Z,4.13
2022-09-25T14:50:27.333Z,5.07
2022-09-25T14:53:02.958Z,3.77
2022-09-25T14:55:36.725Z,4.10
2022-09-25T14:58:09.144Z,4.50
2022-09-25T15:00:36.655Z,4.70
2022-09-25T15:03:05.344Z,4.27
2022-09-25T15:05:34.209Z,5.43
2022-09-25T15:08:02.551Z,6.00
2022-09-25T15:10:40.574Z,6.10
2022-09-25T15:13:10.826Z,5.83
2022-09-25T15:15:39.445Z,5.53
2022-09-25T15:18:12.396Z,6.20
2022-09-25T15:20:45.850Z,6.27
2022-09-25T15:23:19.247Z,6.40
2022-09-25T15:25:53.008Z,6.57
2022-09-25T15:28:24.462Z,6.10
2022-09-25T15:30:59.849Z,5.20
2022-09-25T15:33:32.148Z,5.10
2022-09-25T15:36:01.687Z,5.17
2022-09-25T15:38:34.412Z,4.93
2022-09-25T15:41:02.553Z,5.80
2022-09-25T15:43:30.111Z,6.30
2022-09-25T15:46:18.926Z,5.30
2022-09-25T15:48:55.141Z,5.77
2022-09-25T15:51:25.121Z,5.27
2022-09-25T15:53:57.565Z,5.30
2022-09-25T15:56:43.982Z,5.10
2022-09-25T15:59:27.125Z,5.00
2022-09-25T16:02:13.543Z,4.33
2022-09-25T16:04:51.287Z,4.70
2022-09-25T16:07:35.018Z,3.73
2022-09-25T16:10:10.405Z,3.13
2022-09-25T16:12:58.006Z,3.17
2022-09-25T16:15:28.380Z,3.37
2022-09-25T16:18:04.357Z,2.30
2022-09-25T16:20:38.140Z,2.67
2022-09-25T16:23:07.624Z,2.10
2022-09-25T16:25:37.502Z,3.80
2022-09-25T16:28:28.616Z,2.90
2022-09-25T16:31:09.782Z,3.10
2022-09-25T16:33:42.525Z,3.43
2022-09-25T16:36:18.710Z,3.00
2022-09-25T16:39:07.456Z,3.00
2022-09-25T16:41:36.285Z,2.67
2022-09-25T16:44:14.433Z,2.50
2022-09-25T16:47:03.813Z,2.60
2022-09-25T16:49:33.001Z,3.07
2022-09-25T16:52:00.989Z,3.00
2022-09-25T16:54:30.925Z,3.50
2022-09-25T16:56:58.885Z,3.10
2022-09-25T16:59:28.162Z,3.70
2022-09-25T17:01:58.926Z,3.40
2022-09-25T17:04:28.246Z,8.70
2022-09-25T17:06:57.984Z,5.23
2022-09-25T17:09:26.188Z,3.60
2022-09-25T17:12:07.296Z,4.37
2022-09-25T17:14:34.877Z,3.97
2022-09-25T17:17:02.172Z,3.43
2022-09-25T17:19:29.500Z,3.50
2022-09-25T17:21:57.040Z,3.80
2022-09-25T17:24:26.730Z,4.40
2022-09-25T17:26:54.413Z,3.03
2022-09-25T17:29:21.822Z,4.60
2022-09-25T17:31:49.156Z,3.63
2022-09-25T17:34:24.966Z,4.20
2022-09-25T17:36:52.751Z,4.20
2022-09-25T17:39:20.072Z,4.37
2022-09-25T17:41:47.755Z,4.50
2022-09-25T17:44:21.668Z,3.73
2022-09-25T17:46:52.249Z,5.27
2022-09-25T17:49:19.610Z,5.20
2022-09-25T17:51:47.575Z,5.23
2022-09-25T17:54:15.854Z,7.70
2022-09-25T17:56:45.217Z,5.63
2022-09-25T17:59:13.833Z,4.40
2022-09-25T18:01:41.619Z,5.93
2022-09-25T18:04:22.969Z,5.30
2022-09-25T18:06:50.464Z,4.63
2022-09-25T18:09:17.945Z,5.23
2022-09-25T18:11:45.251Z,4.30
2022-09-25T18:14:14.311Z,4.73
2022-09-25T18:16:43.802Z,4.83
2022-09-25T18:19:37.265Z,5.33
2022-09-25T18:22:17.557Z,6.23
2022-09-25T18:24:45.820Z,5.90
2022-09-25T18:27:13.723Z,5.53
2022-09-25T18:29:41.303Z,6.67
2022-09-25T18:32:08.624Z,5.40
2022-09-25T18:34:35.956Z,6.33
2022-09-25T18:37:03.309Z,6.50
2022-09-25T18:39:30.692Z,5.93
2022-09-25T18:41:57.998Z,6.00
2022-09-25T18:44:25.803Z,6.57
2022-09-25T18:46:54.621Z,7.03
2022-09-25T18:49:22.153Z,5.80
2022-09-25T18:51:49.401Z,6.50
2022-09-25T18:54:17.082Z,6.97
2022-09-25T18:56:44.588Z,5.93
2022-09-25T18:59:12.059Z,6.80
2022-09-25T19:01:40.126Z,5.57
2022-09-25T19:04:07.945Z,5.27
2022-09-25T19:06:35.618Z,5.80
2022-09-25T19:09:04.886Z,5.03
2022-09-25T19:11:32.419Z,4.80
2022-09-25T19:14:04.689Z,5.90
2022-09-25T19:16:37.945Z,4.10
2022-09-25T19:19:05.763Z,6.90
2022-09-25T19:21:33.216Z,5.10
2022-09-25T19:24:01.455Z,5.70
2022-09-25T19:26:28.901Z,5.63
2022-09-25T19:28:56.240Z,4.83
2022-09-25T19:31:25.616Z,5.20
2022-09-25T19:33:56.448Z,5.00
2022-09-25T19:36:32.937Z,4.93
2022-09-25T19:39:00.819Z,5.40
2022-09-25T19:41:34.007Z,5.37
2022-09-25T19:44:11.908Z,6.30
2022-09-25T19:46:41.464Z,6.67
2022-09-25T19:49:10.054Z,5.77
2022-09-25T19:51:37.790Z,5.90
2022-09-25T19:54:07.422Z,5.87
2022-09-25T19:56:41.986Z,7.30
2022-09-25T19:59:14.024Z,6.00
2022-09-25T20:01:42.882Z,6.23
2022-09-25T20:04:17.141Z,5.20
2022-09-25T20:06:46.187Z,6.10
2022-09-25T20:09:13.612Z,7.10
2022-09-25T20:11:41.019Z,6.00
2022-09-25T20:14:09.256Z,5.83
2022-09-25T20:16:37.619Z,6.00
2022-09-25T20:19:06.622Z,5.93
2022-09-25T20:21:36.580Z,6.47
2022-09-25T20:24:06.202Z,6.70
2022-09-25T20:26:33.758Z,6.97
2022-09-25T20:29:03.562Z,6.53
2022-09-25T20:31:32.725Z,6.23
2022-09-25T20:34:00.131Z,6.87
2022-09-25T20:36:27.530Z,6.43
2022-09-25T20:38:56.285Z,7.17
2022-09-25T20:41:24.865Z,6.07
2022-09-25T20:43:54.233Z,7.03
2022-09-25T20:46:21.959Z,7.00
2022-09-25T20:48:51.351Z,6.83
2022-09-25T20:51:20.974Z,5.70
2022-09-25T20:53:52.368Z,5.80
2022-09-25T20:56:20.327Z,5.90
2022-09-25T20:58:52.357Z,7.13
2022-09-25T21:01:24.668Z,5.97
2022-09-25T21:03:52.854Z,6.10
2022-09-25T21:06:22.715Z,6.23
2022-09-25T21:09:00.819Z,5.47
2022-09-25T21:11:30.143Z,4.93
2022-09-25T21:13:59.388Z,6.10
2022-09-25T21:16:28.648Z,5.53
2022-09-25T21:18:58.380Z,4.27
2022-09-25T21:21:27.119Z,5.30
2022-09-25T21:23:56.045Z,5.87
2022-09-25T21:26:27.937Z,5.27
2022-09-25T21:28:56.709Z,5.43
2022-09-25T21:31:36.599Z,4.20
2022-09-25T21:34:05.272Z,4.53
2022-09-25T21:36:33.282Z,4.40
2022-09-25T21:39:01.440Z,4.63
2022-09-25T21:41:30.199Z,5.03
2022-09-25T21:44:12.991Z,5.93
2022-09-25T21:46:40.486Z,4.90
2022-09-25T21:49:08.886Z,4.17
2022-09-25T21:51:38.623Z,5.17
2022-09-25T21:54:07.742Z,5.20
2022-09-25T21:56:35.024Z,4.60
2022-09-25T21:59:08.340Z,5.07
2022-09-25T22:01:38.460Z,6.80
2022-09-25T22:04:06.942Z,7.37
2022-09-25T22:06:39.698Z,7.43
2022-09-25T22:09:22.079Z,6.83
2022-09-25T22:11:50.987Z,6.43
2022-09-25T22:14:19.888Z,7.30
2022-09-25T22:16:49.335Z,7.10
2022-09-25T22:19:26.442Z,6.50
2022-09-25T22:21:55.074Z,8.63
2022-09-25T22:24:22.642Z,8.80
2022-09-25T22:26:51.606Z,8.00
2022-09-25T22:29:20.659Z,7.60
2022-09-25T22:31:48.307Z,8.03
2022-09-25T22:34:18.321Z,8.97
2022-09-25T22:36:45.988Z,8.63
2022-09-25T22:39:15.016Z,6.87
2022-09-25T22:41:42.362Z,8.30
2022-09-25T22:44:09.647Z,7.63
2022-09-25T22:46:37.320Z,6.97
2022-09-25T22:49:04.723Z,7.83
2022-09-25T22:51:32.072Z,7.90
2022-09-25T22:53:59.343Z,7.70
2022-09-25T22:56:32.158Z,8.10
2022-09-25T22:59:05.492Z,7.70
2022-09-25T23:01:37.013Z,7.27
2022-09-25T23:04:07.564Z,7.90
2022-09-25T23:06:35.907Z,8.20
2022-09-25T23:09:10.892Z,8.70
2022-09-25T23:11:38.411Z,7.67
2022-09-25T23:14:16.586Z,7.60
2022-09-25T23:16:45.327Z,8.87
2022-09-25T23:19:13.174Z,7.63
2022-09-25T23:21:40.597Z,8.10
2022-09-25T23:24:11.419Z,8.20
2022-09-25T23:26:38.943Z,7.77
2022-09-25T23:29:06.386Z,8.47
2022-09-25T23:31:33.928Z,7.40
2022-09-25T23:34:02.522Z,7.03
2022-09-25T23:36:30.496Z,7.83
2022-09-25T23:39:00.026Z,7.47
2022-09-25T23:41:31.127Z,6.90
2022-09-25T23:43:59.618Z,6.23
2022-09-25T23:46:29.163Z,8.43
2022-09-25T23:48:56.745Z,6.90
2022-09-25T23:51:26.093Z,7.57
2022-09-25T23:53:54.326Z,8.37
2022-09-25T23:56:24.426Z,8.60
2022-09-25T23:58:52.027Z,7.67
